Main page
METAR-TAF:

METAR-TAF

Airports :

Yacuiba Airport

Yacuíba, Bolivia

latitude: 21-57S, longitude: 063-39W, elevation: 645 m

Current weather observation

The report was made 9 hours and 45 minutes ago, at 17:00 UTC
Wind 12 kt from the East/Northeast
Temperature 31°C
Humidity 36%
Pressure 1015 hPa
Visibility 10 km or more

METAR: SLYA 251700Z 06012KT 9999 NSC 31/14 Q1015

Time: 22:45 (02:45 UTC)

Forecast

The report was made 3 hours and 45 minutes ago, at 23:00 UTC
Forecast valid from 24 at 00 UTC to 24 at 24 UTC
Wind kt from the North
Visibility 10 km or more
Scattered clouds at a height of 7000 ft
Becoming
from 24 at 15 UTC to 24 at 17 UTC
Wind 10 kt from the East/Northeast

TAF: SLYA 232300Z 2400/2424 00000KT 9999 SCT070 TX28/2419Z TN14/2411Z BECMG 2415/2417 06010KT

Weather observations and forecasts of more than 4000 airports (METAR and TAF reports).

The available stations are represented by yellow and red dots on the map.

Hover mouse over dot to see the name of the station.

Then click to see weather observations and forecasts.

To change the map : click on the green buttons with a black cross to zoom in, on the green button with a dash to zoom out, or on the green arrows for adjacent maps.


METAR-TAF: